Terminal Aerodrome Forecast
Issued by NWS Raleigh/Durham, NC

Home | Current Version | Previous Version | Text Only | Print | Product List | Glossary On
Versions: 1 2 3 4 5 6 7 8 9 10 11 12 13 14 15 16 17 18 19 20 21 22 23 24 25 26 27 28 29 30 31 32 33 34 35 36
265
FTUS42 KRAH 302320
TAFFAY
TAF
KFAY 302320Z 0100/0124 10010KT P6SM OVC025
     FM010200 13008KT P6SM OVC016
     FM010700 12006KT P6SM VCSH OVC009
      TEMPO 0110/0113 5SM BR OVC003
     FM011500 19010KT P6SM BKN025 OVC045
     FM011800 20012KT P6SM OVC050 PROB30 0118/0124 P6SM -TSRA
      BKN050CB=

USA.gov is the U.S. government's official web portal to all federal, state and local government web resources and services.